Time;durP1;ratioP1;P1;durP2;ratioP2;P2;SDS_P1;SDS_P2;PMS_P1;PMS_P2;Temp;Humidity;BMP_temperature;BMP_pressure;BME280_temperature;BME280_humidity;BME280_pressure;Samples;Min_cycle;Max_cycle;Signal;HPM_P1;HPM_P2
2024/01/07 00:01:36;;;;;;;124.82;77.45;;;307.20;2304.00;;;;;;5083864;28;20054;-60
2024/01/07 00:04:02;;;;;;;158.52;99.85;;;307.20;2304.00;;;;;;5073458;28;20497;-60
2024/01/07 00:06:27;;;;;;;149.45;95.38;;;307.30;2304.00;;;;;;5072878;28;20028;-62
2024/01/07 00:08:53;;;;;;;118.72;72.95;;;307.30;2304.00;;;;;;5090038;28;20497;-61
2024/01/07 00:11:19;;;;;;;84.03;51.38;;;307.30;2304.00;;;;;;5089261;28;20052;-60
2024/01/07 00:13:45;;;;;;;82.80;45.97;;;307.30;2304.00;;;;;;5090056;28;20119;-59
2024/01/07 00:16:11;;;;;;;55.03;34.38;;;307.30;2304.00;;;;;;5088735;28;20027;-61
2024/01/07 00:18:37;;;;;;;87.00;50.97;;;307.40;2304.00;;;;;;5086081;28;20017;-60
2024/01/07 00:21:03;;;;;;;77.70;44.78;;;307.40;2304.00;;;;;;5081392;28;20096;-61
2024/01/07 00:23:29;;;;;;;101.93;62.78;;;307.50;2304.00;;;;;;5064885;28;20025;-60
2024/01/07 00:25:54;;;;;;;60.60;38.65;;;307.80;2304.00;;;;;;5069149;28;20029;-61
2024/01/07 00:28:20;;;;;;;56.55;36.05;;;307.60;2304.00;;;;;;5051089;28;20041;-61
2024/01/07 00:30:46;;;;;;;65.57;41.72;;;307.60;2304.00;;;;;;5052553;28;20375;-61
2024/01/07 00:33:12;;;;;;;26.20;17.23;;;307.60;2304.00;;;;;;5074339;28;20023;-60
2024/01/07 00:35:38;;;;;;;65.18;34.15;;;307.60;2304.00;;;;;;5077001;28;20028;-61
2024/01/07 00:38:03;;;;;;;92.95;51.95;;;307.60;2304.00;;;;;;5075966;28;20078;-61
2024/01/07 00:40:29;;;;;;;69.40;39.78;;;307.60;2304.00;;;;;;5073855;28;20540;-62
2024/01/07 00:42:55;;;;;;;61.42;35.00;;;307.60;2304.00;;;;;;5087956;28;20020;-60
2024/01/07 00:45:21;;;;;;;42.83;25.55;;;307.60;2304.00;;;;;;5077806;28;20374;-60
2024/01/07 00:47:47;;;;;;;41.75;27.48;;;307.70;2304.00;;;;;;5086713;28;20032;-60
2024/01/07 00:50:13;;;;;;;62.80;38.25;;;307.70;2304.00;;;;;;5077685;28;20031;-60
2024/01/07 00:52:41;;;;;;;55.97;34.75;;;307.70;2304.00;;;;;;5088586;28;20024;-59
2024/01/07 00:55:07;;;;;;;55.60;33.33;;;307.60;2304.00;;;;;;5072752;28;20446;-61
2024/01/07 00:57:33;;;;;;;51.88;33.08;;;307.60;2304.00;;;;;;5069016;28;20033;-61
2024/01/07 01:00:00;;;;;;;58.72;40.40;;;307.60;2304.00;;;;;;5056123;28;20048;-61
2024/01/07 01:02:26;;;;;;;63.03;38.92;;;307.70;2304.00;;;;;;5066047;28;20064;-61
2024/01/07 01:04:51;;;;;;;49.53;31.20;;;307.60;2304.00;;;;;;5057178;28;20081;-61
2024/01/07 01:07:17;;;;;;;39.30;25.73;;;307.60;2304.00;;;;;;5082565;28;20131;-60
2024/01/07 01:09:43;;;;;;;31.67;22.65;;;307.50;2304.00;;;;;;5058208;28;20431;-60
2024/01/07 01:12:09;;;;;;;36.38;23.13;;;307.50;2304.00;;;;;;5055744;28;20035;-61
2024/01/07 01:14:34;;;;;;;28.55;20.08;;;307.60;2304.00;;;;;;5064257;28;20028;-61
2024/01/07 01:17:00;;;;;;;25.80;20.08;;;307.60;2304.00;;;;;;5053941;28;20037;-59
2024/01/07 01:19:26;;;;;;;30.13;22.05;;;307.60;2304.00;;;;;;5069981;28;20020;-59
2024/01/07 01:21:51;;;;;;;31.80;21.63;;;307.60;2304.00;;;;;;5061400;28;20103;-58
2024/01/07 01:24:17;;;;;;;41.58;26.95;;;307.60;2304.00;;;;;;5071057;28;20062;-59
2024/01/07 01:26:43;;;;;;;28.48;19.92;;;307.60;2304.00;;;;;;5059499;28;20059;-61
2024/01/07 01:29:09;;;;;;;51.33;36.05;;;307.60;2304.00;;;;;;5068180;28;20028;-62
2024/01/07 01:31:35;;;;;;;51.40;31.40;;;307.60;2304.00;;;;;;5068989;28;20021;-60
2024/01/07 01:34:01;;;;;;;32.72;22.60;;;307.60;2304.00;;;;;;5078187;28;20033;-59
2024/01/07 01:36:26;;;;;;;31.33;19.95;;;307.60;2304.00;;;;;;5062343;28;20101;-60
2024/01/07 01:38:52;;;;;;;26.50;16.75;;;307.60;2304.00;;;;;;5080156;28;20037;-60
2024/01/07 01:41:18;;;;;;;25.77;18.67;;;307.50;2304.00;;;;;;5052620;28;20047;-59
2024/01/07 01:43:44;;;;;;;26.88;19.48;;;307.60;2304.00;;;;;;5087691;28;20055;-61
2024/01/07 01:46:09;;;;;;;38.63;22.83;;;307.50;2304.00;;;;;;5085068;28;20024;-60
2024/01/07 01:48:38;;;;;;;60.20;36.15;;;307.40;2304.00;;;;;;5072544;28;20033;-62
2024/01/07 01:51:04;;;;;;;38.78;28.55;;;307.30;2304.00;;;;;;5059098;28;20047;-60
2024/01/07 01:53:31;;;;;;;31.73;20.35;;;307.30;2304.00;;;;;;5064799;28;20032;-60
2024/01/07 01:56:00;;;;;;;28.38;20.27;;;307.40;2304.00;;;;;;5050994;28;20024;-61
2024/01/07 01:58:26;;;;;;;35.17;24.33;;;307.40;2304.00;;;;;;5048771;28;20032;-61
2024/01/07 02:00:52;;;;;;;31.25;20.60;;;307.40;2304.00;;;;;;5080273;28;20050;-61
2024/01/07 02:03:18;;;;;;;29.98;18.88;;;307.40;2304.00;;;;;;5056041;28;20052;-60
2024/01/07 02:05:45;;;;;;;29.85;20.10;;;307.30;2304.00;;;;;;5080025;28;20048;-61
2024/01/07 02:08:11;;;;;;;23.65;16.88;;;307.30;2304.00;;;;;;5079038;28;20437;-60
2024/01/07 02:10:37;;;;;;;22.40;15.25;;;307.20;2304.00;;;;;;5072569;28;20027;-60
2024/01/07 02:13:04;;;;;;;27.40;16.13;;;282.40;2278.40;;;;;;5072993;28;20033;-61
2024/01/07 02:15:30;;;;;;;24.23;15.45;;;282.30;2278.40;;;;;;5072898;28;20028;-60
2024/01/07 02:17:56;;;;;;;22.05;14.35;;;282.30;2278.40;;;;;;5072652;28;20029;-60
2024/01/07 02:20:22;;;;;;;20.17;13.10;;;282.30;2278.40;;;;;;5072674;28;20050;-60
2024/01/07 02:22:48;;;;;;;20.55;13.20;;;282.20;2278.40;;;;;;5072594;28;20077;-61
2024/01/07 02:25:13;;;;;;;26.58;13.45;;;282.40;2278.40;;;;;;5072346;28;20028;-62
2024/01/07 02:27:39;;;;;;;20.35;15.38;;;282.50;2278.40;;;;;;5072878;28;20132;-61
2024/01/07 02:30:05;;;;;;;23.00;14.00;;;282.50;2278.40;;;;;;5072842;28;20348;-59
2024/01/07 02:32:34;;;;;;;23.52;14.73;;;282.50;2278.40;;;;;;5072444;28;20040;-60
2024/01/07 02:35:00;;;;;;;22.15;13.43;;;282.50;2278.40;;;;;;5072523;28;20032;-61
2024/01/07 02:37:26;;;;;;;19.27;15.38;;;307.20;2304.00;;;;;;5072360;28;20028;-60
2024/01/07 02:39:52;;;;;;;22.92;16.33;;;307.20;2304.00;;;;;;5072169;28;20401;-60
2024/01/07 02:42:18;;;;;;;21.08;14.00;;;307.30;2304.00;;;;;;5072444;28;20024;-60
2024/01/07 02:44:43;;;;;;;22.52;14.25;;;307.30;2304.00;;;;;;5072277;28;20020;-60
2024/01/07 02:47:09;;;;;;;26.60;17.20;;;307.40;2304.00;;;;;;5072042;28;20527;-60
2024/01/07 02:49:35;;;;;;;34.45;23.08;;;307.40;2304.00;;;;;;5071759;28;20028;-60
2024/01/07 02:52:01;;;;;;;26.67;17.90;;;307.40;2304.00;;;;;;5072282;28;20032;-60
2024/01/07 02:54:26;;;;;;;28.75;16.55;;;307.40;2304.00;;;;;;5071632;28;20025;-59
2024/01/07 02:56:52;;;;;;;24.58;19.08;;;307.40;2304.00;;;;;;5071982;28;20017;-60
2024/01/07 02:59:18;;;;;;;20.55;13.35;;;307.30;2304.00;;;;;;5071722;28;20028;-60
2024/01/07 03:01:44;;;;;;;23.35;15.00;;;307.40;2304.00;;;;;;5071705;28;20013;-60
2024/01/07 03:04:12;;;;;;;20.38;13.95;;;307.40;2304.00;;;;;;5072163;28;20028;-60
2024/01/07 03:06:38;;;;;;;20.00;15.65;;;307.40;2304.00;;;;;;5071599;28;20467;-60
2024/01/07 03:09:03;;;;;;;21.17;13.50;;;307.30;2304.00;;;;;;5071496;28;20028;-60
2024/01/07 03:11:29;;;;;;;21.35;13.75;;;307.30;2304.00;;;;;;5071836;28;20017;-60
2024/01/07 03:13:56;;;;;;;27.45;17.83;;;307.30;2304.00;;;;;;5071616;28;20028;-60
2024/01/07 03:16:23;;;;;;;23.67;14.40;;;307.30;2304.00;;;;;;5071488;28;20023;-59
2024/01/07 03:18:49;;;;;;;16.15;12.95;;;307.30;2304.00;;;;;;5071529;28;20063;-61
2024/01/07 03:21:23;;;;;;;44.78;28.08;;;307.40;2304.00;;;;;;5071509;28;20374;-61
2024/01/07 03:23:50;;;;;;;37.78;23.20;;;307.40;2304.00;;;;;;5071648;28;20087;-60
2024/01/07 03:26:17;;;;;;;33.08;22.13;;;307.30;2304.00;;;;;;5071025;28;20060;-59
2024/01/07 03:28:43;;;;;;;39.90;26.13;;;307.30;2304.00;;;;;;5071491;28;20045;-59
2024/01/07 03:31:11;;;;;;;33.53;22.52;;;307.30;2304.00;;;;;;5071680;28;20051;-60
2024/01/07 03:33:38;;;;;;;179.98;112.20;;;307.30;2304.00;;;;;;5071294;28;20033;-60
2024/01/07 03:36:13;;;;;;;149.57;93.95;;;307.30;2304.00;;;;;;5071362;28;20351;-61
2024/01/07 03:38:40;;;;;;;52.63;33.13;;;307.30;2304.00;;;;;;5071027;28;20036;-60
2024/01/07 03:41:06;;;;;;;24.27;15.18;;;307.20;2304.00;;;;;;5070985;28;20039;-60
2024/01/07 03:43:32;;;;;;;87.18;48.05;;;307.20;2304.00;;;;;;5071074;28;20033;-60
2024/01/07 03:45:59;;;;;;;56.85;43.25;;;307.60;2304.00;;;;;;5071153;28;20031;-59
2024/01/07 03:48:25;;;;;;;31.08;24.60;;;282.50;2278.40;;;;;;5070716;28;20029;-60
2024/01/07 03:50:51;;;;;;;35.63;28.35;;;282.50;2278.40;;;;;;5071148;28;20017;-60
2024/01/07 03:53:17;;;;;;;21.38;14.80;;;282.40;2278.40;;;;;;5070530;28;20548;-60
2024/01/07 03:55:42;;;;;;;17.77;12.05;;;282.30;2278.40;;;;;;5071013;28;20449;-60
2024/01/07 03:58:08;;;;;;;19.83;12.40;;;282.30;2278.40;;;;;;5070908;28;20049;-59
2024/01/07 04:00:34;;;;;;;21.08;14.20;;;282.20;2278.40;;;;;;5070585;28;20466;-61
2024/01/07 04:03:01;;;;;;;20.88;14.95;;;282.30;2278.40;;;;;;5070851;28;20050;-60
2024/01/07 04:05:29;;;;;;;22.13;13.75;;;282.40;2278.40;;;;;;5070553;28;20021;-59
2024/01/07 04:07:54;;;;;;;154.48;86.93;;;282.40;2278.40;;;;;;5070166;28;20047;-60
2024/01/07 04:10:20;;;;;;;105.60;60.53;;;282.30;2278.40;;;;;;5070437;28;20029;-60
2024/01/07 04:12:46;;;;;;;74.80;42.90;;;282.40;2278.40;;;;;;5070149;28;20020;-60
2024/01/07 04:15:12;;;;;;;30.90;19.75;;;282.40;2278.40;;;;;;5070786;28;20104;-59
2024/01/07 04:17:38;;;;;;;25.67;16.95;;;282.20;2278.40;;;;;;5070225;28;20490;-59
2024/01/07 04:20:05;;;;;;;21.88;15.82;;;282.00;2278.40;;;;;;5070352;28;20033;-60
2024/01/07 04:22:31;;;;;;;19.48;13.27;;;282.10;2278.40;;;;;;5070091;28;20062;-58
2024/01/07 04:24:57;;;;;;;16.60;12.07;;;282.00;2278.40;;;;;;5077423;28;20020;-60
2024/01/07 04:27:24;;;;;;;19.25;14.77;;;281.90;2278.40;;;;;;5069914;28;20041;-60
2024/01/07 04:29:50;;;;;;;40.50;24.48;;;282.00;2278.40;;;;;;5083339;28;20500;-60
2024/01/07 04:32:16;;;;;;;76.18;45.05;;;282.00;2278.40;;;;;;5057483;28;20036;-60
2024/01/07 04:34:42;;;;;;;55.72;35.30;;;282.20;2278.40;;;;;;5070459;28;20351;-61
2024/01/07 04:37:08;;;;;;;54.05;34.80;;;282.20;2278.40;;;;;;5069829;28;20453;-60
2024/01/07 04:39:34;;;;;;;43.88;28.02;;;282.30;2278.40;;;;;;5069380;28;20057;-60
2024/01/07 04:41:59;;;;;;;39.25;24.55;;;282.40;2278.40;;;;;;5069795;28;20111;-60
2024/01/07 04:44:25;;;;;;;49.95;32.97;;;282.40;2278.40;;;;;;5069700;28;20025;-60
2024/01/07 04:46:51;;;;;;;37.65;22.73;;;282.50;2278.40;;;;;;5070117;28;20024;-60
2024/01/07 04:49:17;;;;;;;27.75;16.48;;;307.50;2304.00;;;;;;5069478;28;20067;-59
2024/01/07 04:51:42;;;;;;;20.58;15.55;;;282.20;2278.40;;;;;;5052124;28;20116;-61
2024/01/07 04:54:08;;;;;;;23.05;16.35;;;281.90;2278.40;;;;;;5069880;28;20028;-60
2024/01/07 04:56:34;;;;;;;29.30;16.27;;;281.70;2278.40;;;;;;5069459;28;20024;-60
2024/01/07 04:59:00;;;;;;;26.63;18.20;;;256.90;2252.80;;;;;;5069467;28;20035;-61
2024/01/07 05:01:25;;;;;;;20.33;15.25;;;256.80;2252.80;;;;;;5056399;28;20025;-60
2024/01/07 05:03:51;;;;;;;19.48;14.00;;;256.70;2252.80;;;;;;5069671;28;20028;-59
2024/01/07 05:06:17;;;;;;;19.13;13.57;;;256.60;2252.80;;;;;;5069361;28;20055;-60
2024/01/07 05:08:43;;;;;;;18.35;11.32;;;256.70;2252.80;;;;;;5069013;28;20112;-61
2024/01/07 05:11:09;;;;;;;17.15;10.82;;;256.70;2252.80;;;;;;5069874;28;20388;-60
2024/01/07 05:13:35;;;;;;;15.88;10.93;;;256.70;2252.80;;;;;;5069560;28;20024;-60
2024/01/07 05:16:02;;;;;;;20.35;13.60;;;256.60;2252.80;;;;;;5069584;28;20024;-59
2024/01/07 05:18:28;;;;;;;20.83;14.80;;;256.40;2252.80;;;;;;5069600;28;20088;-60
2024/01/07 05:20:54;;;;;;;23.63;13.52;;;256.40;2252.80;;;;;;5068946;28;20485;-60
2024/01/07 05:23:20;;;;;;;19.33;11.63;;;256.50;2252.80;;;;;;5069345;28;20077;-60
2024/01/07 05:25:46;;;;;;;21.20;11.38;;;256.40;2252.80;;;;;;5068876;28;20050;-60
2024/01/07 05:28:13;;;;;;;26.70;14.93;;;256.40;2252.80;;;;;;5069154;28;20037;-59
2024/01/07 05:30:39;;;;;;;21.83;16.88;;;256.40;2252.80;;;;;;5069236;28;20028;-59
2024/01/07 05:33:05;;;;;;;20.45;15.32;;;256.40;2252.80;;;;;;5069272;28;20028;-59
2024/01/07 05:35:31;;;;;;;22.15;17.33;;;256.40;2252.80;;;;;;5070604;28;20031;-60
2024/01/07 05:37:57;;;;;;;20.58;16.73;;;256.50;2252.80;;;;;;5078036;28;20033;-59
2024/01/07 05:40:23;;;;;;;23.25;17.35;;;256.40;2252.80;;;;;;5068786;28;20051;-60
2024/01/07 05:42:49;;;;;;;25.15;18.20;;;256.40;2252.80;;;;;;5069075;28;20025;-60
2024/01/07 05:45:15;;;;;;;22.98;17.17;;;256.40;2252.80;;;;;;5069023;28;20024;-60
2024/01/07 05:47:40;;;;;;;24.17;16.75;;;256.30;2252.80;;;;;;5069061;28;20028;-58
2024/01/07 05:50:07;;;;;;;22.92;17.00;;;256.30;2252.80;;;;;;5072794;28;20020;-59
2024/01/07 05:52:33;;;;;;;25.92;18.73;;;256.40;2252.80;;;;;;5071804;28;20032;-59
2024/01/07 05:54:59;;;;;;;27.98;17.55;;;256.30;2252.80;;;;;;5068245;28;20024;-59
2024/01/07 05:57:25;;;;;;;24.60;16.17;;;256.20;2252.80;;;;;;5074254;28;20028;-60
2024/01/07 05:59:51;;;;;;;24.30;17.67;;;256.20;2252.80;;;;;;5069241;28;20419;-60
2024/01/07 06:02:18;;;;;;;27.63;18.00;;;256.10;2252.80;;;;;;5068945;28;20017;-60
2024/01/07 06:04:44;;;;;;;24.05;17.17;;;256.00;2252.80;;;;;;5069137;28;20439;-60
2024/01/07 06:07:09;;;;;;;27.83;18.75;;;256.00;2252.80;;;;;;5083550;28;20039;-60
2024/01/07 06:09:35;;;;;;;29.17;19.92;;;231.30;2252.80;;;;;;5076593;28;20390;-61
2024/01/07 06:12:01;;;;;;;26.20;18.45;;;256.00;2252.80;;;;;;5068707;28;20105;-60
2024/01/07 06:14:27;;;;;;;31.58;20.45;;;256.00;2252.80;;;;;;5081267;28;20124;-61
2024/01/07 06:16:53;;;;;;;23.95;18.35;;;231.30;2252.80;;;;;;5079406;28;20441;-59
2024/01/07 06:19:19;;;;;;;30.30;17.58;;;256.00;2252.80;;;;;;5069001;28;20025;-60
2024/01/07 06:21:45;;;;;;;24.70;17.10;;;256.00;2252.80;;;;;;5079178;28;20466;-60
2024/01/07 06:24:11;;;;;;;64.30;37.10;;;256.00;2252.80;;;;;;5071187;28;20025;-60
2024/01/07 06:26:37;;;;;;;26.80;20.40;;;256.00;2252.80;;;;;;5065239;28;20097;-61
2024/01/07 06:29:03;;;;;;;282.63;197.77;;;256.00;2252.80;;;;;;5068126;28;20473;-59
2024/01/07 06:31:28;;;;;;;66.82;48.75;;;231.30;2252.80;;;;;;5072832;28;20404;-59
2024/01/07 06:33:55;;;;;;;30.92;22.88;;;256.00;2252.80;;;;;;5068725;28;20020;-61
2024/01/07 06:36:22;;;;;;;50.30;31.67;;;256.00;2252.80;;;;;;5068507;28;20028;-60
2024/01/07 06:38:48;;;;;;;133.85;104.72;;;231.30;2252.80;;;;;;5068301;28;20488;-60
2024/01/07 06:41:14;;;;;;;31.45;23.13;;;231.30;2252.80;;;;;;5068289;28;20070;-61
2024/01/07 06:43:40;;;;;;;41.47;36.42;;;231.30;2252.80;;;;;;5068538;28;20406;-61
2024/01/07 06:46:07;;;;;;;55.30;36.17;;;231.30;2252.80;;;;;;5068343;28;20131;-60
2024/01/07 06:48:33;;;;;;;33.17;25.00;;;231.20;2252.80;;;;;;5068602;28;20467;-60
2024/01/07 06:50:59;;;;;;;42.75;32.65;;;231.30;2252.80;;;;;;5066187;28;20020;-60
2024/01/07 06:53:24;;;;;;;44.78;35.97;;;256.00;2252.80;;;;;;5078750;28;20025;-60
2024/01/07 06:55:51;;;;;;;71.43;58.92;;;231.20;2252.80;;;;;;5075125;28;20024;-60
2024/01/07 06:58:16;;;;;;;38.35;26.73;;;231.20;2252.80;;;;;;5091542;28;20496;-59
2024/01/07 07:00:42;;;;;;;36.03;25.08;;;231.30;2252.80;;;;;;5086035;28;20020;-59
2024/01/07 07:03:08;;;;;;;39.83;27.35;;;256.00;2252.80;;;;;;5063572;28;20056;-59
2024/01/07 07:05:34;;;;;;;38.45;26.95;;;231.30;2252.80;;;;;;5071286;28;20457;-60
2024/01/07 07:08:00;;;;;;;36.83;27.88;;;231.30;2252.80;;;;;;5081145;28;20062;-60
2024/01/07 07:10:26;;;;;;;37.05;27.75;;;231.20;2252.80;;;;;;5078716;28;20503;-59
2024/01/07 07:12:51;;;;;;;40.90;29.17;;;231.10;2252.80;;;;;;5077156;28;20028;-60
2024/01/07 07:15:17;;;;;;;57.15;42.95;;;231.10;2252.80;;;;;;5069930;28;20032;-59
2024/01/07 07:17:43;;;;;;;124.97;63.13;;;231.10;2252.80;;;;;;5080868;28;20031;-60
2024/01/07 07:20:10;;;;;;;39.45;29.88;;;231.20;2252.80;;;;;;5082094;28;20021;-59
2024/01/07 07:22:35;;;;;;;42.10;31.58;;;231.30;2252.80;;;;;;5070110;28;20029;-59
2024/01/07 07:25:02;;;;;;;43.92;31.50;;;231.10;2252.80;;;;;;5063065;28;20078;-60
2024/01/07 07:27:28;;;;;;;49.15;34.30;;;231.10;2252.80;;;;;;5073293;28;20120;-59
2024/01/07 07:29:53;;;;;;;45.05;31.88;;;231.10;2252.80;;;;;;5084071;28;20572;-61
2024/01/07 07:32:19;;;;;;;54.47;38.00;;;231.00;2252.80;;;;;;5076416;28;20124;-60
2024/01/07 07:34:46;;;;;;;55.83;38.08;;;230.90;2252.80;;;;;;5085795;28;20028;-59
2024/01/07 07:37:13;;;;;;;53.95;35.63;;;230.90;2252.80;;;;;;5068046;28;20028;-61
2024/01/07 07:39:38;;;;;;;50.38;37.42;;;231.10;2201.60;;;;;;5062652;28;20446;-60
2024/01/07 07:42:04;;;;;;;65.07;47.08;;;230.90;2252.80;;;;;;5063724;28;20032;-61
2024/01/07 07:44:30;;;;;;;68.65;51.55;;;230.90;2252.80;;;;;;5078703;28;20055;-60
2024/01/07 07:46:56;;;;;;;50.20;35.78;;;231.00;2252.80;;;;;;5070939;28;20026;-59
2024/01/07 07:49:22;;;;;;;55.83;37.25;;;231.00;2252.80;;;;;;5077862;28;20384;-60
2024/01/07 07:51:48;;;;;;;72.70;51.22;;;231.10;2252.80;;;;;;5083535;28;20020;-60
2024/01/07 07:54:13;;;;;;;52.35;37.95;;;231.10;2252.80;;;;;;5081352;28;20020;-60
2024/01/07 07:56:39;;;;;;;47.80;34.60;;;231.10;2252.80;;;;;;5070902;28;20024;-65
2024/01/07 07:59:05;;;;;;;47.30;38.65;;;231.20;2252.80;;;;;;5070813;28;20114;-66
2024/01/07 08:01:31;;;;;;;85.40;59.08;;;231.30;2252.80;;;;;;5073024;28;20062;-65
2024/01/07 08:03:56;;;;;;;141.02;92.18;;;256.00;2252.80;;;;;;5063939;28;20088;-64
2024/01/07 08:06:22;;;;;;;66.07;45.78;;;231.30;2252.80;;;;;;5067395;28;20467;-63
2024/01/07 08:08:48;;;;;;;63.78;43.75;;;256.10;2252.80;;;;;;5070622;28;20040;-60
2024/01/07 08:11:14;;;;;;;163.07;105.13;;;256.10;2252.80;;;;;;5070660;28;20036;-61
2024/01/07 08:13:39;;;;;;;49.88;39.30;;;256.10;2252.80;;;;;;5082653;28;20036;-57
2024/01/07 08:16:06;;;;;;;48.63;34.75;;;256.10;2252.80;;;;;;5070629;28;20025;-65
2024/01/07 08:18:32;;;;;;;46.92;34.97;;;256.10;2252.80;;;;;;5070878;28;20040;-65
2024/01/07 08:20:58;;;;;;;41.38;29.85;;;256.20;2252.80;;;;;;5070402;28;20047;-65
2024/01/07 08:23:24;;;;;;;42.58;30.75;;;256.20;2252.80;;;;;;5070405;28;20387;-64
2024/01/07 08:25:53;;;;;;;42.22;29.98;;;256.40;2252.80;;;;;;5070334;28;20024;-64
2024/01/07 08:28:20;;;;;;;38.85;27.25;;;256.50;2252.80;;;;;;5070081;28;20486;-65
2024/01/07 08:30:46;;;;;;;40.10;29.63;;;256.70;2252.80;;;;;;5063565;28;20025;-61
2024/01/07 08:33:12;;;;;;;39.47;27.73;;;256.60;2252.80;;;;;;5073660;28;20046;-61
2024/01/07 08:35:38;;;;;;;36.72;29.58;;;256.80;2252.80;;;;;;5070371;28;20447;-64
2024/01/07 08:38:04;;;;;;;39.97;28.45;;;256.90;2252.80;;;;;;5064340;28;20036;-62
2024/01/07 08:40:31;;;;;;;35.38;27.65;;;256.90;2252.80;;;;;;5077350;28;20115;-61
2024/01/07 08:42:57;;;;;;;37.72;29.80;;;281.60;2278.40;;;;;;5072435;28;20020;-63
2024/01/07 08:45:22;;;;;;;36.45;32.38;;;281.70;2278.40;;;;;;5073361;28;20482;-69
2024/01/07 08:47:48;;;;;;;43.40;32.45;;;281.70;2278.40;;;;;;5075044;28;20047;-72
2024/01/07 08:50:14;;;;;;;34.50;26.90;;;281.70;2278.40;;;;;;5071762;28;20458;-69
2024/01/07 08:52:40;;;;;;;34.78;25.77;;;282.00;2278.40;;;;;;5081307;28;20028;-70
2024/01/07 08:55:09;;;;;;;37.90;27.73;;;282.00;2278.40;;;;;;5069248;28;20025;-71
2024/01/07 08:57:36;;;;;;;35.08;28.15;;;281.90;2278.40;;;;;;5070261;28;20092;-72
2024/01/07 09:00:02;;;;;;;36.78;25.95;;;281.80;2278.40;;;;;;5069618;28;20371;-71
2024/01/07 09:02:28;;;;;;;33.53;25.23;;;256.80;2252.80;;;;;;5071751;28;20031;-71
2024/01/07 09:04:54;;;;;;;40.65;28.58;;;281.60;2278.40;;;;;;5067296;28;20027;-68
2024/01/07 09:07:19;;;;;;;47.17;32.50;;;281.60;2278.40;;;;;;5072756;28;20070;-71
2024/01/07 09:09:45;;;;;;;38.63;31.60;;;256.90;2252.80;;;;;;5077555;28;20040;-71
2024/01/07 09:12:11;;;;;;;52.45;36.70;;;256.70;2252.80;;;;;;5072043;28;20021;-69
2024/01/07 09:14:40;;;;;;;73.18;43.47;;;256.70;2252.80;;;;;;5070152;28;20081;-72
2024/01/07 09:17:05;;;;;;;43.53;29.52;;;256.70;2252.80;;;;;;5085449;28;20039;-71
2024/01/07 09:19:31;;;;;;;42.28;32.78;;;256.70;2252.80;;;;;;5069688;28;20028;-69
2024/01/07 09:21:57;;;;;;;61.22;40.22;;;256.70;2252.80;;;;;;5070502;28;20024;-72
2024/01/07 09:24:23;;;;;;;58.88;37.88;;;256.70;2252.80;;;;;;5078489;28;20032;-71
2024/01/07 09:26:49;;;;;;;73.22;47.83;;;256.80;2252.80;;;;;;5062589;28;20411;-68
2024/01/07 09:29:14;;;;;;;71.97;48.25;;;256.70;2252.80;;;;;;5069268;28;20028;-70
2024/01/07 09:31:40;;;;;;;52.05;36.63;;;256.70;2252.80;;;;;;5061270;28;20078;-70
2024/01/07 09:34:09;;;;;;;49.92;33.58;;;256.70;2252.80;;;;;;5061218;28;20032;-71
2024/01/07 09:36:36;;;;;;;43.47;30.52;;;256.40;2252.80;;;;;;5074518;28;20024;-70
2024/01/07 09:39:04;;;;;;;218.98;161.18;;;256.40;2252.80;;;;;;5079881;28;20079;-71
2024/01/07 09:41:30;;;;;;;53.38;38.92;;;256.40;2252.80;;;;;;5069827;28;20043;-69
2024/01/07 09:43:58;;;;;;;53.17;39.10;;;256.40;2252.80;;;;;;5062972;28;20024;-70
2024/01/07 09:46:24;;;;;;;40.53;28.95;;;256.40;2252.80;;;;;;5066493;28;20442;-71
2024/01/07 09:48:50;;;;;;;40.75;28.45;;;256.30;2252.80;;;;;;5067202;28;20071;-71
2024/01/07 09:51:21;;;;;;;43.80;30.17;;;256.30;2252.80;;;;;;5063142;28;20025;-71
2024/01/07 09:53:48;;;;;;;42.67;28.38;;;256.10;2252.80;;;;;;5061036;28;20469;-69
2024/01/07 09:56:22;;;;;;;45.72;30.75;;;256.00;2252.80;;;;;;5058417;28;20467;-70
2024/01/07 09:58:49;;;;;;;47.00;30.77;;;231.30;2252.80;;;;;;5056789;28;20040;-71
2024/01/07 10:01:18;;;;;;;48.65;31.55;;;256.00;2252.80;;;;;;5057446;28;20023;-70
2024/01/07 10:03:44;;;;;;;42.05;29.10;;;256.20;2252.80;;;;;;5055073;28;20032;-70
2024/01/07 10:06:13;;;;;;;37.80;27.02;;;256.10;2252.80;;;;;;5060548;28;20109;-72
2024/01/07 10:08:40;;;;;;;48.38;31.27;;;256.20;2252.80;;;;;;5059830;28;20125;-70
2024/01/07 10:11:09;;;;;;;52.58;32.03;;;256.20;2252.80;;;;;;5051980;28;20029;-70
2024/01/07 10:13:35;;;;;;;40.53;27.85;;;256.30;2252.80;;;;;;5058089;28;20051;-69
2024/01/07 10:16:00;;;;;;;53.88;35.15;;;256.30;2252.80;;;;;;5057177;28;20089;-70
2024/01/07 10:18:27;;;;;;;51.35;36.17;;;256.40;2252.80;;;;;;5072834;28;20032;-69
2024/01/07 10:20:55;;;;;;;42.42;30.60;;;256.40;2252.80;;;;;;5063448;28;20024;-69
2024/01/07 10:23:20;;;;;;;56.05;36.47;;;256.50;2252.80;;;;;;5056837;28;20041;-62
2024/01/07 10:25:47;;;;;;;54.83;40.30;;;256.40;2252.80;;;;;;5054241;28;20027;-65
2024/01/07 10:28:14;;;;;;;47.78;31.27;;;256.30;2252.80;;;;;;5063628;28;20131;-65
2024/01/07 10:30:40;;;;;;;55.10;36.72;;;256.40;2252.80;;;;;;5057207;28;20021;-67
2024/01/07 10:33:08;;;;;;;40.35;28.65;;;256.30;2252.80;;;;;;5062711;28;20378;-66
2024/01/07 10:35:35;;;;;;;50.70;31.13;;;256.30;2252.80;;;;;;5066035;28;20024;-64
2024/01/07 10:38:02;;;;;;;42.13;28.35;;;256.20;2252.80;;;;;;5063335;28;20518;-64
2024/01/07 10:40:30;;;;;;;41.20;27.40;;;256.20;2252.80;;;;;;5063731;28;20453;-66
2024/01/07 10:42:55;;;;;;;71.45;44.80;;;256.30;2252.80;;;;;;5071291;28;20085;-65
2024/01/07 10:45:22;;;;;;;52.88;36.38;;;256.20;2252.80;;;;;;5055468;28;20032;-64
2024/01/07 10:47:54;;;;;;;68.28;43.33;;;256.40;2252.80;;;;;;5057893;28;20114;-66
2024/01/07 10:50:21;;;;;;;46.42;31.13;;;256.20;2252.80;;;;;;5068053;28;20033;-65
2024/01/07 10:52:57;;;;;;;240.65;131.93;;;256.20;2252.80;;;;;;5067667;28;20024;-64
2024/01/07 10:55:26;;;;;;;46.83;32.95;;;256.20;2252.80;;;;;;5061528;28;20036;-66
2024/01/07 10:57:56;;;;;;;34.92;26.10;;;256.30;2252.80;;;;;;5061652;28;20024;-66
2024/01/07 11:00:22;;;;;;;50.70;32.22;;;256.20;2252.80;;;;;;5062069;28;20016;-67
2024/01/07 11:03:11;;;;;;;45.85;34.80;;;256.10;2252.80;;;;;;5063019;28;20090;-67
2024/01/07 11:05:43;;;;;;;44.60;34.72;;;256.10;2252.80;;;;;;5062123;28;20029;-67
2024/01/07 11:08:40;;;;;;;88.63;54.22;;;256.10;2252.80;;;;;;5057154;28;20036;-65
2024/01/07 11:11:12;;;;;;;49.80;34.28;;;256.20;2252.80;;;;;;5064871;28;20124;-65
2024/01/07 11:13:39;;;;;;;59.85;37.58;;;256.20;2252.80;;;;;;5060909;28;20078;-66
2024/01/07 11:16:11;;;;;;;52.35;33.10;;;256.10;2252.80;;;;;;5056282;28;20033;-67
2024/01/07 11:18:55;;;;;;;67.22;39.78;;;256.10;2252.80;;;;;;5055107;28;20118;-65
2024/01/07 11:21:22;;;;;;;49.50;32.63;;;256.10;2252.80;;;;;;5061649;28;20082;-65
2024/01/07 11:23:47;;;;;;;80.90;55.35;;;256.30;2252.80;;;;;;5059303;28;20025;-65
2024/01/07 11:26:13;;;;;;;64.20;44.03;;;256.20;2252.80;;;;;;5055809;28;20039;-67
2024/01/07 11:28:54;;;;;;;86.13;55.55;;;256.20;2252.80;;;;;;5061393;28;20095;-66
2024/01/07 11:31:21;;;;;;;51.03;32.72;;;256.20;2252.80;;;;;;5054710;28;20037;-66
2024/01/07 11:33:49;;;;;;;59.97;37.63;;;256.20;2252.80;;;;;;5065110;28;20094;-65
2024/01/07 11:36:19;;;;;;;47.05;31.02;;;256.10;2252.80;;;;;;5071833;28;20040;-66
2024/01/07 11:38:49;;;;;;;67.20;45.63;;;256.20;2252.80;;;;;;5061495;28;20674;-66
2024/01/07 11:41:16;;;;;;;47.10;34.03;;;256.20;2252.80;;;;;;5059996;28;20483;-68
2024/01/07 11:44:02;;;;;;;52.33;37.55;;;256.10;2252.80;;;;;;5059632;28;20403;-65
2024/01/07 11:46:29;;;;;;;54.83;39.80;;;256.20;2252.80;;;;;;5055556;28;20413;-65
2024/01/07 11:48:58;;;;;;;44.50;30.30;;;256.30;2252.80;;;;;;5061251;28;20494;-66
2024/01/07 11:51:31;;;;;;;43.13;30.92;;;256.40;2252.80;;;;;;5072763;28;20056;-65
2024/01/07 11:54:01;;;;;;;48.85;35.30;;;256.40;2252.80;;;;;;5071739;28;20021;-66
2024/01/07 11:56:28;;;;;;;51.00;36.50;;;256.40;2252.80;;;;;;5067987;28;20028;-66